Terminal Aerodrome Forecast
Issued by NWS

Home | Current Version | Previous Version | Text Only | Print | Product List | Glossary Off
Versions: 1 2 3 4 5 6 7 8 9 10 11 12 13 14 15 16 17 18

908
FTUS43 KICT 280520
TAFCNU
TAF
KCNU 280520Z 2806/2906 13006KT P6SM FEW050 FEW250
     FM282100 33005KT P6SM SCT050 SCT200=

USA.gov is the U.S. government's official web portal to all federal, state and local government web resources and services.